createdAt,value
2019-02-23T00:01:41.647Z,8.38
2019-02-23T00:06:45.674Z,8.49
2019-02-23T00:11:49.869Z,8.52
2019-02-23T00:16:54.033Z,8.61
2019-02-23T00:21:58.048Z,8.71
2019-02-23T00:27:02.122Z,8.87
2019-02-23T00:32:06.221Z,8.94
2019-02-23T00:37:13.216Z,8.98
2019-02-23T00:42:17.337Z,8.95
2019-02-23T00:47:21.360Z,8.83
2019-02-23T00:52:25.588Z,8.83
2019-02-23T00:57:29.553Z,8.70
2019-02-23T01:02:34.465Z,8.64
2019-02-23T01:07:38.478Z,8.66
2019-02-23T01:12:42.363Z,8.69
2019-02-23T01:17:46.432Z,8.84
2019-02-23T01:22:50.768Z,8.83
2019-02-23T01:27:54.677Z,8.82
2019-02-23T01:32:58.818Z,8.85
2019-02-23T01:38:02.994Z,8.90
2019-02-23T01:43:07.280Z,8.92
2019-02-23T01:48:11.561Z,8.90
2019-02-23T01:53:16.110Z,8.96
2019-02-23T01:58:20.144Z,8.98
2019-02-23T02:03:25.043Z,9.11
2019-02-23T02:08:29.287Z,9.08
2019-02-23T02:13:33.458Z,9.22
2019-02-23T02:18:37.587Z,9.37
2019-02-23T02:23:41.714Z,9.51
2019-02-23T02:28:45.738Z,9.58
2019-02-23T02:34:03.108Z,9.69
2019-02-23T02:39:10.903Z,9.68
2019-02-23T02:44:15.016Z,9.72
2019-02-23T02:49:18.980Z,9.65
2019-02-23T02:54:23.068Z,9.76
2019-02-23T02:59:27.094Z,9.78
2019-02-23T03:04:32.010Z,9.85
2019-02-23T03:09:35.983Z,9.85
2019-02-23T03:14:39.993Z,9.77
2019-02-23T03:19:43.964Z,9.70
2019-02-23T03:24:47.998Z,9.70
2019-02-23T03:29:52.023Z,9.72
2019-02-23T03:34:55.994Z,9.65
2019-02-23T03:40:00.095Z,9.74
2019-02-23T03:45:04.678Z,9.68
2019-02-23T03:50:08.889Z,9.63
2019-02-23T03:55:12.817Z,9.55
2019-02-23T04:00:16.937Z,9.56
2019-02-23T04:05:22.032Z,9.56
2019-02-23T04:10:26.119Z,9.59
2019-02-23T04:15:30.248Z,9.51
2019-02-23T04:20:34.471Z,9.49
2019-02-23T04:25:38.629Z,9.49
2019-02-23T04:30:42.628Z,9.47
2019-02-23T04:35:46.752Z,9.53
2019-02-23T04:40:50.923Z,9.46
2019-02-23T04:45:55.013Z,9.47
2019-02-23T04:50:59.137Z,9.50
2019-02-23T04:56:03.057Z,9.44
2019-02-23T05:01:07.137Z,9.34
2019-02-23T05:06:11.352Z,9.26
2019-02-23T05:11:15.314Z,9.17
2019-02-23T05:16:19.388Z,8.99
2019-02-23T05:21:26.792Z,8.91
2019-02-23T05:26:29.262Z,8.85
2019-02-23T05:31:33.282Z,8.85
2019-02-23T05:36:37.267Z,8.86
2019-02-23T05:41:41.247Z,8.90
2019-02-23T05:46:45.362Z,8.82
2019-02-23T05:51:49.302Z,8.80
2019-02-23T05:56:53.457Z,8.89
2019-02-23T06:01:57.454Z,8.93
2019-02-23T06:07:02.498Z,8.91
2019-02-23T06:12:06.616Z,8.94
2019-02-23T06:17:10.819Z,8.93
2019-02-23T06:22:15.025Z,9.02
2019-02-23T06:27:19.202Z,9.01
2019-02-23T06:32:23.339Z,9.02
2019-02-23T06:37:27.361Z,9.01
2019-02-23T06:42:31.321Z,9.09
2019-02-23T06:47:35.427Z,9.11
2019-02-23T06:52:39.431Z,9.10
2019-02-23T06:57:43.463Z,9.06
2019-02-23T07:02:47.494Z,9.23
2019-02-23T07:07:51.719Z,9.26
2019-02-23T07:12:55.857Z,9.25
2019-02-23T07:18:00.277Z,9.35
2019-02-23T07:23:04.348Z,9.43
2019-02-23T07:28:10.884Z,9.47
2019-02-23T07:33:14.402Z,9.53
2019-02-23T07:38:18.536Z,9.60
2019-02-23T07:43:22.659Z,9.63
2019-02-23T07:48:26.606Z,9.66
2019-02-23T07:53:30.641Z,9.72
2019-02-23T07:58:34.730Z,9.77
2019-02-23T08:03:38.857Z,9.80
2019-02-23T08:08:43.916Z,9.97
2019-02-23T08:13:48.024Z,10.08
2019-02-23T08:18:51.962Z,10.18
2019-02-23T08:23:55.988Z,10.35
2019-02-23T08:29:00.133Z,10.39
2019-02-23T08:34:04.241Z,10.38
2019-02-23T08:39:08.376Z,10.41
2019-02-23T08:44:12.497Z,10.47
2019-02-23T08:49:16.570Z,10.42
2019-02-23T08:54:20.652Z,9.95
2019-02-23T08:59:24.676Z,10.33
2019-02-23T09:04:28.811Z,10.40
2019-02-23T09:09:33.906Z,10.59
2019-02-23T09:14:38.287Z,10.72
2019-02-23T09:19:42.518Z,10.97
2019-02-23T09:24:46.551Z,11.34
2019-02-23T09:29:50.690Z,11.53
2019-02-23T09:34:54.598Z,11.70
2019-02-23T09:39:59.136Z,11.77
2019-02-23T09:45:03.467Z,12.08
2019-02-23T09:50:08.208Z,11.79
2019-02-23T09:55:13.033Z,11.71
2019-02-23T10:00:17.286Z,11.57
2019-02-23T10:05:21.526Z,11.57
2019-02-23T10:10:25.817Z,11.50
2019-02-23T10:15:29.867Z,11.41
2019-02-23T10:20:33.950Z,11.63
2019-02-23T10:25:38.134Z,11.63
2019-02-23T10:30:43.386Z,11.57
2019-02-23T10:35:47.617Z,11.62
2019-02-23T10:40:51.664Z,11.80
2019-02-23T10:45:55.671Z,12.07
2019-02-23T10:50:59.687Z,12.17
2019-02-23T10:56:03.711Z,12.07
2019-02-23T11:01:07.628Z,12.37
2019-02-23T11:06:11.818Z,12.36
2019-02-23T11:11:16.247Z,12.36
2019-02-23T11:16:20.532Z,12.28
2019-02-23T11:21:24.767Z,12.40
2019-02-23T11:26:29.049Z,12.37
2019-02-23T11:31:33.226Z,12.75
2019-02-23T11:36:37.347Z,12.86
2019-02-23T11:41:41.499Z,12.92
2019-02-23T11:46:59.842Z,13.06
2019-02-23T11:51:51.279Z,13.06
2019-02-23T11:56:55.463Z,13.00
2019-02-23T12:01:59.527Z,13.08
2019-02-23T12:07:03.758Z,12.96
2019-02-23T12:12:07.934Z,12.83
2019-02-23T12:17:11.940Z,12.60
2019-02-23T12:22:18.501Z,12.28
2019-02-23T12:27:22.411Z,12.23
2019-02-23T12:32:26.542Z,12.29
2019-02-23T12:37:30.613Z,12.25
2019-02-23T12:42:35.013Z,12.36
2019-02-23T12:47:38.990Z,12.47
2019-02-23T12:52:43.345Z,12.44
2019-02-23T12:57:47.365Z,12.56
2019-02-23T13:02:51.932Z,12.34
2019-02-23T13:07:55.891Z,13.07
2019-02-23T13:13:16.937Z,13.28
2019-02-23T13:18:38.046Z,13.13
2019-02-23T13:24:03.027Z,13.08
2019-02-23T13:29:16.416Z,13.00
2019-02-23T13:34:48.132Z,12.91
2019-02-23T13:40:11.001Z,12.75
2019-02-23T13:45:30.647Z,12.41
2019-02-23T13:50:42.969Z,12.16
2019-02-23T13:56:03.902Z,11.96
2019-02-23T14:01:22.356Z,11.82
2019-02-23T14:06:34.029Z,11.64
2019-02-23T14:11:53.495Z,11.62
2019-02-23T14:17:09.396Z,11.45
2019-02-23T14:22:27.244Z,11.41
2019-02-23T14:27:53.193Z,11.41
2019-02-23T14:33:15.701Z,11.42
2019-02-23T14:38:33.795Z,11.45
2019-02-23T14:43:50.786Z,11.45
2019-02-23T14:49:10.848Z,11.52
2019-02-23T14:54:21.867Z,11.61
2019-02-23T14:59:52.347Z,11.68
2019-02-23T15:05:12.458Z,11.71
2019-02-23T15:10:31.133Z,11.70
2019-02-23T15:15:53.081Z,11.47
2019-02-23T15:21:19.941Z,11.55
2019-02-23T15:26:37.219Z,11.71
2019-02-23T15:32:00.153Z,11.74
2019-02-23T15:37:17.631Z,12.00
2019-02-23T15:42:34.104Z,12.00
2019-02-23T15:47:49.862Z,12.32
2019-02-23T15:52:54.011Z,12.22
2019-02-23T15:57:57.978Z,12.25
2019-02-23T16:03:02.142Z,12.35
2019-02-23T16:08:06.062Z,12.62
2019-02-23T16:13:10.334Z,12.69
2019-02-23T16:18:14.478Z,12.42
2019-02-23T16:23:18.947Z,12.41
2019-02-23T16:28:23.186Z,12.45
2019-02-23T16:33:27.419Z,12.46
2019-02-23T16:38:31.534Z,11.99
2019-02-23T16:43:35.691Z,12.04
2019-02-23T16:48:39.667Z,11.77
2019-02-23T16:53:43.667Z,11.84
2019-02-23T16:58:48.007Z,11.86
2019-02-23T17:03:52.130Z,11.85
2019-02-23T17:08:56.316Z,11.85
2019-02-23T17:14:00.338Z,11.74
2019-02-23T17:24:22.586Z,11.47
2019-02-23T17:29:26.815Z,11.43
2019-02-23T17:34:30.817Z,11.43
2019-02-23T17:39:35.012Z,11.39
2019-02-23T17:44:39.084Z,11.35
2019-02-23T17:49:43.105Z,11.54
2019-02-23T17:54:47.339Z,11.51
2019-02-23T17:59:51.931Z,11.51
2019-02-23T18:04:56.217Z,11.17
2019-02-23T18:10:00.392Z,11.17
2019-02-23T18:15:04.886Z,11.21
2019-02-23T18:20:10.284Z,11.08
2019-02-23T18:25:14.777Z,11.22
2019-02-23T18:30:18.998Z,11.13
2019-02-23T18:35:23.172Z,11.31
2019-02-23T18:40:27.211Z,11.42
2019-02-23T18:45:31.312Z,11.51
2019-02-23T18:50:35.351Z,11.35
2019-02-23T18:55:41.325Z,11.35
2019-02-23T19:00:45.233Z,11.06
2019-02-23T19:05:50.157Z,11.29
2019-02-23T19:10:55.805Z,11.33
2019-02-23T19:16:02.140Z,11.51
2019-02-23T19:21:06.057Z,11.60
2019-02-23T19:26:10.138Z,11.54
2019-02-23T19:31:14.146Z,11.53
2019-02-23T19:36:18.230Z,11.41
2019-02-23T19:41:22.255Z,11.37
2019-02-23T19:46:26.690Z,11.52
2019-02-23T19:51:30.982Z,11.49
2019-02-23T19:56:35.105Z,11.49
2019-02-23T20:01:39.438Z,11.28
2019-02-23T20:06:43.671Z,11.45
2019-02-23T20:11:48.747Z,11.47
2019-02-23T20:16:54.857Z,11.47
2019-02-23T20:21:58.923Z,11.47
2019-02-23T20:27:03.374Z,11.53
2019-02-23T20:32:07.442Z,11.51
2019-02-23T20:37:11.508Z,11.24
2019-02-23T20:42:15.588Z,11.24
2019-02-23T20:47:22.793Z,11.04
2019-02-23T20:52:27.124Z,10.84
2019-02-23T20:57:31.513Z,10.74
2019-02-23T21:02:35.683Z,10.71
2019-02-23T21:07:39.912Z,10.79
2019-02-23T21:12:43.868Z,10.77
2019-02-23T21:17:47.814Z,10.78
2019-02-23T21:22:52.024Z,10.80
2019-02-23T21:27:56.118Z,10.81
2019-02-23T21:33:00.062Z,10.80
2019-02-23T21:38:04.105Z,10.77
2019-02-23T21:43:08.198Z,10.77
2019-02-23T21:48:12.473Z,10.76
2019-02-23T21:53:17.612Z,10.77
2019-02-23T21:58:21.756Z,10.77
2019-02-23T22:03:25.942Z,10.86
2019-02-23T22:08:29.968Z,10.86
2019-02-23T22:13:34.262Z,10.81
2019-02-23T22:18:38.355Z,10.78
2019-02-23T22:23:42.554Z,10.64
2019-02-23T22:28:46.660Z,10.50
2019-02-23T22:33:50.698Z,10.43
2019-02-23T22:38:54.824Z,10.64
2019-02-23T22:44:00.061Z,10.63
2019-02-23T22:49:04.319Z,10.65
2019-02-23T22:54:08.320Z,10.53
2019-02-23T22:59:12.253Z,10.42
2019-02-23T23:04:16.288Z,10.33
2019-02-23T23:09:20.438Z,10.08
2019-02-23T23:14:24.489Z,9.93
2019-02-23T23:19:28.722Z,10.02
2019-02-23T23:24:32.808Z,9.92
2019-02-23T23:29:37.274Z,9.77
2019-02-23T23:34:41.409Z,9.75
2019-02-23T23:39:45.592Z,9.90
2019-02-23T23:44:49.718Z,9.91
2019-02-23T23:49:53.742Z,9.77
2019-02-23T23:54:57.772Z,9.77
